Terminal Aerodrome Forecast
Issued by NWS

Home | Current Version | Previous Version | Text Only | Print | Product List | Glossary On
Versions: 1 2 3 4 5 6 7 8 9 10 11 12 13 14 15
619
FTUS45 KFGZ 220529
TAFGCN
TAF
KGCN 220529Z 2206/2306 VRB05KT P6SM SCT060 BKN110
     FM221800 VRB06KT P6SM SCT070 OVC100
      TEMPO 2219/2223 VRB10G20KT 5SM TSRA BKN050CB=

USA.gov is the U.S. government's official web portal to all federal, state and local government web resources and services.